sensor_id;sensor_type;location;lat;lon;timestamp;P1;durP1;ratioP1;P2;durP2;ratioP2
55202;SDS011;41077;52.956;6.796;2022-09-24T00:01:10;127.82;;;115.30;;
55202;SDS011;41077;52.956;6.796;2022-09-24T00:03:38;126.80;;;114.00;;
55202;SDS011;41077;52.956;6.796;2022-09-24T00:06:05;130.63;;;117.80;;
55202;SDS011;41077;52.956;6.796;2022-09-24T00:08:32;130.88;;;118.63;;
55202;SDS011;41077;52.956;6.796;2022-09-24T00:11:03;126.15;;;113.53;;
55202;SDS011;41077;52.956;6.796;2022-09-24T00:13:30;125.40;;;113.07;;
55202;SDS011;41077;52.956;6.796;2022-09-24T00:16:00;127.53;;;115.53;;
55202;SDS011;41077;52.956;6.796;2022-09-24T00:18:27;129.38;;;116.20;;
55202;SDS011;41077;52.956;6.796;2022-09-24T00:20:53;129.35;;;117.53;;
55202;SDS011;41077;52.956;6.796;2022-09-24T00:23:18;124.20;;;112.13;;
55202;SDS011;41077;52.956;6.796;2022-09-24T00:25:44;130.02;;;117.80;;
55202;SDS011;41077;52.956;6.796;2022-09-24T00:28:30;140.57;;;126.97;;
55202;SDS011;41077;52.956;6.796;2022-09-24T00:30:57;133.98;;;121.18;;
55202;SDS011;41077;52.956;6.796;2022-09-24T00:33:24;124.47;;;111.38;;
55202;SDS011;41077;52.956;6.796;2022-09-24T00:35:52;132.38;;;119.25;;
55202;SDS011;41077;52.956;6.796;2022-09-24T00:38:22;130.43;;;117.15;;
55202;SDS011;41077;52.956;6.796;2022-09-24T00:40:49;130.70;;;117.65;;
55202;SDS011;41077;52.956;6.796;2022-09-24T00:43:22;139.07;;;124.80;;
55202;SDS011;41077;52.956;6.796;2022-09-24T00:45:49;136.93;;;123.72;;
55202;SDS011;41077;52.956;6.796;2022-09-24T00:48:16;143.73;;;129.80;;
55202;SDS011;41077;52.956;6.796;2022-09-24T00:50:42;136.35;;;122.43;;
55202;SDS011;41077;52.956;6.796;2022-09-24T00:53:13;136.45;;;122.85;;
55202;SDS011;41077;52.956;6.796;2022-09-24T00:55:43;135.10;;;120.95;;
55202;SDS011;41077;52.956;6.796;2022-09-24T00:58:11;133.80;;;120.03;;
55202;SDS011;41077;52.956;6.796;2022-09-24T01:00:38;131.80;;;118.13;;
55202;SDS011;41077;52.956;6.796;2022-09-24T01:03:13;137.77;;;123.57;;
55202;SDS011;41077;52.956;6.796;2022-09-24T01:05:41;140.80;;;127.13;;
55202;SDS011;41077;52.956;6.796;2022-09-24T01:08:10;135.52;;;120.95;;
55202;SDS011;41077;52.956;6.796;2022-09-24T01:10:48;140.73;;;125.80;;
55202;SDS011;41077;52.956;6.796;2022-09-24T01:25:20;149.07;;;135.35;;
55202;SDS011;41077;52.956;6.796;2022-09-24T01:30:38;156.02;;;140.38;;
55202;SDS011;41077;52.956;6.796;2022-09-24T01:33:10;153.13;;;131.80;;
55202;SDS011;41077;52.956;6.796;2022-09-24T01:35:43;142.65;;;128.45;;
55202;SDS011;41077;52.956;6.796;2022-09-24T01:38:19;144.50;;;129.23;;
55202;SDS011;41077;52.956;6.796;2022-09-24T01:40:47;141.40;;;126.00;;
55202;SDS011;41077;52.956;6.796;2022-09-24T01:43:15;146.82;;;130.85;;
55202;SDS011;41077;52.956;6.796;2022-09-24T01:45:44;140.95;;;125.32;;
55202;SDS011;41077;52.956;6.796;2022-09-24T01:48:10;141.65;;;126.30;;
55202;SDS011;41077;52.956;6.796;2022-09-24T01:50:39;149.50;;;129.23;;
55202;SDS011;41077;52.956;6.796;2022-09-24T01:53:52;142.55;;;127.95;;
55202;SDS011;41077;52.956;6.796;2022-09-24T01:56:03;148.88;;;133.43;;
55202;SDS011;41077;52.956;6.796;2022-09-24T01:58:39;149.75;;;126.95;;
55202;SDS011;41077;52.956;6.796;2022-09-24T02:01:14;144.32;;;123.80;;
55202;SDS011;41077;52.956;6.796;2022-09-24T02:03:47;146.07;;;130.80;;
55202;SDS011;41077;52.956;6.796;2022-09-24T02:06:19;140.80;;;125.82;;
55202;SDS011;41077;52.956;6.796;2022-09-24T02:08:49;142.57;;;127.75;;
55202;SDS011;41077;52.956;6.796;2022-09-24T02:11:16;154.52;;;138.00;;
55202;SDS011;41077;52.956;6.796;2022-09-24T02:16:19;151.55;;;133.05;;
55202;SDS011;41077;52.956;6.796;2022-09-24T02:18:51;139.25;;;124.50;;
55202;SDS011;41077;52.956;6.796;2022-09-24T02:21:20;145.80;;;130.27;;
55202;SDS011;41077;52.956;6.796;2022-09-24T02:26:48;142.32;;;127.53;;
55202;SDS011;41077;52.956;6.796;2022-09-24T02:29:14;138.38;;;123.45;;
55202;SDS011;41077;52.956;6.796;2022-09-24T02:31:46;136.50;;;121.82;;
55202;SDS011;41077;52.956;6.796;2022-09-24T02:34:14;140.50;;;125.75;;
55202;SDS011;41077;52.956;6.796;2022-09-24T02:37:05;142.98;;;126.32;;
55202;SDS011;41077;52.956;6.796;2022-09-24T02:39:35;139.65;;;124.38;;
55202;SDS011;41077;52.956;6.796;2022-09-24T02:42:01;145.07;;;122.13;;
55202;SDS011;41077;52.956;6.796;2022-09-24T02:44:29;132.52;;;118.10;;
55202;SDS011;41077;52.956;6.796;2022-09-24T02:47:00;131.77;;;117.72;;
55202;SDS011;41077;52.956;6.796;2022-09-24T02:49:26;142.60;;;124.95;;
55202;SDS011;41077;52.956;6.796;2022-09-24T02:51:55;138.88;;;123.35;;
55202;SDS011;41077;52.956;6.796;2022-09-24T02:54:21;139.25;;;124.22;;
55202;SDS011;41077;52.956;6.796;2022-09-24T02:56:48;139.18;;;122.28;;
55202;SDS011;41077;52.956;6.796;2022-09-24T02:59:13;136.32;;;120.75;;
55202;SDS011;41077;52.956;6.796;2022-09-24T03:01:39;146.68;;;120.22;;
55202;SDS011;41077;52.956;6.796;2022-09-24T03:04:05;137.10;;;122.32;;
55202;SDS011;41077;52.956;6.796;2022-09-24T03:06:31;138.07;;;122.50;;
55202;SDS011;41077;52.956;6.796;2022-09-24T03:08:57;139.13;;;124.00;;
55202;SDS011;41077;52.956;6.796;2022-09-24T03:11:22;142.98;;;127.75;;
55202;SDS011;41077;52.956;6.796;2022-09-24T03:13:49;151.45;;;124.03;;
55202;SDS011;41077;52.956;6.796;2022-09-24T03:16:15;141.18;;;115.00;;
55202;SDS011;41077;52.956;6.796;2022-09-24T03:18:42;140.18;;;124.80;;
55202;SDS011;41077;52.956;6.796;2022-09-24T03:21:09;144.63;;;120.82;;
55202;SDS011;41077;52.956;6.796;2022-09-24T03:23:36;141.73;;;126.80;;
55202;SDS011;41077;52.956;6.796;2022-09-24T03:26:02;153.77;;;127.35;;
55202;SDS011;41077;52.956;6.796;2022-09-24T03:28:28;139.65;;;121.90;;
55202;SDS011;41077;52.956;6.796;2022-09-24T03:30:54;139.45;;;124.32;;
55202;SDS011;41077;52.956;6.796;2022-09-24T03:35:57;137.55;;;122.60;;
55202;SDS011;41077;52.956;6.796;2022-09-24T03:38:27;143.73;;;128.00;;
55202;SDS011;41077;52.956;6.796;2022-09-24T03:40:54;145.60;;;127.85;;
55202;SDS011;41077;52.956;6.796;2022-09-24T03:43:20;144.25;;;122.38;;
55202;SDS011;41077;52.956;6.796;2022-09-24T03:45:47;145.18;;;129.43;;
55202;SDS011;41077;52.956;6.796;2022-09-24T03:48:14;140.35;;;123.60;;
55202;SDS011;41077;52.956;6.796;2022-09-24T03:50:45;148.95;;;122.82;;
55202;SDS011;41077;52.956;6.796;2022-09-24T03:53:11;152.02;;;129.80;;
55202;SDS011;41077;52.956;6.796;2022-09-24T03:55:47;154.60;;;129.02;;
55202;SDS011;41077;52.956;6.796;2022-09-24T03:58:18;149.15;;;132.55;;
55202;SDS011;41077;52.956;6.796;2022-09-24T04:00:44;157.85;;;139.13;;
55202;SDS011;41077;52.956;6.796;2022-09-24T04:03:10;147.10;;;130.90;;
55202;SDS011;41077;52.956;6.796;2022-09-24T04:05:35;146.60;;;130.80;;
55202;SDS011;41077;52.956;6.796;2022-09-24T04:08:02;143.88;;;128.82;;
55202;SDS011;41077;52.956;6.796;2022-09-24T04:10:30;157.35;;;137.18;;
55202;SDS011;41077;52.956;6.796;2022-09-24T04:12:56;160.57;;;138.82;;
55202;SDS011;41077;52.956;6.796;2022-09-24T04:15:22;163.55;;;133.93;;
55202;SDS011;41077;52.956;6.796;2022-09-24T04:17:48;169.90;;;135.77;;
55202;SDS011;41077;52.956;6.796;2022-09-24T04:20:15;162.43;;;138.85;;
55202;SDS011;41077;52.956;6.796;2022-09-24T04:22:41;154.50;;;135.90;;
55202;SDS011;41077;52.956;6.796;2022-09-24T04:25:09;163.93;;;131.57;;
55202;SDS011;41077;52.956;6.796;2022-09-24T04:27:35;162.93;;;133.23;;
55202;SDS011;41077;52.956;6.796;2022-09-24T04:30:01;164.30;;;128.13;;
55202;SDS011;41077;52.956;6.796;2022-09-24T04:32:26;167.20;;;137.00;;
55202;SDS011;41077;52.956;6.796;2022-09-24T04:34:52;159.50;;;124.95;;
55202;SDS011;41077;52.956;6.796;2022-09-24T04:37:17;156.88;;;129.88;;
55202;SDS011;41077;52.956;6.796;2022-09-24T04:39:43;149.20;;;124.22;;
55202;SDS011;41077;52.956;6.796;2022-09-24T04:42:09;155.43;;;131.50;;
55202;SDS011;41077;52.956;6.796;2022-09-24T04:44:39;155.93;;;132.75;;
55202;SDS011;41077;52.956;6.796;2022-09-24T04:47:04;150.43;;;124.57;;
55202;SDS011;41077;52.956;6.796;2022-09-24T04:49:32;154.45;;;131.02;;
55202;SDS011;41077;52.956;6.796;2022-09-24T04:52:01;158.90;;;132.07;;
55202;SDS011;41077;52.956;6.796;2022-09-24T04:54:26;173.85;;;136.68;;
55202;SDS011;41077;52.956;6.796;2022-09-24T04:56:53;164.73;;;137.07;;
55202;SDS011;41077;52.956;6.796;2022-09-24T04:59:20;147.70;;;131.50;;
55202;SDS011;41077;52.956;6.796;2022-09-24T05:01:47;147.52;;;131.52;;
55202;SDS011;41077;52.956;6.796;2022-09-24T05:04:12;155.18;;;133.73;;
55202;SDS011;41077;52.956;6.796;2022-09-24T05:06:38;149.15;;;127.75;;
55202;SDS011;41077;52.956;6.796;2022-09-24T05:09:04;157.07;;;121.45;;
55202;SDS011;41077;52.956;6.796;2022-09-24T05:11:29;162.15;;;131.73;;
55202;SDS011;41077;52.956;6.796;2022-09-24T05:13:55;165.27;;;130.15;;
55202;SDS011;41077;52.956;6.796;2022-09-24T05:16:20;165.38;;;136.57;;
55202;SDS011;41077;52.956;6.796;2022-09-24T05:18:46;160.15;;;131.15;;
55202;SDS011;41077;52.956;6.796;2022-09-24T05:21:12;165.10;;;135.20;;
55202;SDS011;41077;52.956;6.796;2022-09-24T05:23:37;167.70;;;130.05;;
55202;SDS011;41077;52.956;6.796;2022-09-24T05:26:03;165.80;;;132.00;;
55202;SDS011;41077;52.956;6.796;2022-09-24T05:28:47;158.68;;;132.02;;
55202;SDS011;41077;52.956;6.796;2022-09-24T05:31:13;146.52;;;129.32;;
55202;SDS011;41077;52.956;6.796;2022-09-24T05:33:38;159.05;;;131.00;;
55202;SDS011;41077;52.956;6.796;2022-09-24T05:36:04;161.00;;;133.20;;
55202;SDS011;41077;52.956;6.796;2022-09-24T05:38:30;164.60;;;129.50;;
55202;SDS011;41077;52.956;6.796;2022-09-24T05:40:57;161.32;;;121.60;;
55202;SDS011;41077;52.956;6.796;2022-09-24T05:43:22;161.48;;;123.63;;
55202;SDS011;41077;52.956;6.796;2022-09-24T05:45:51;158.63;;;124.32;;
55202;SDS011;41077;52.956;6.796;2022-09-24T05:48:19;161.90;;;128.30;;
55202;SDS011;41077;52.956;6.796;2022-09-24T05:50:47;157.98;;;140.25;;
55202;SDS011;41077;52.956;6.796;2022-09-24T05:53:13;159.95;;;123.43;;
55202;SDS011;41077;52.956;6.796;2022-09-24T05:55:38;170.93;;;123.80;;
55202;SDS011;41077;52.956;6.796;2022-09-24T05:58:06;154.07;;;120.15;;
55202;SDS011;41077;52.956;6.796;2022-09-24T06:00:34;161.95;;;128.20;;
55202;SDS011;41077;52.956;6.796;2022-09-24T06:03:01;171.52;;;129.68;;
55202;SDS011;41077;52.956;6.796;2022-09-24T06:05:28;170.45;;;128.18;;
55202;SDS011;41077;52.956;6.796;2022-09-24T06:07:53;163.82;;;125.70;;
55202;SDS011;41077;52.956;6.796;2022-09-24T06:10:20;153.68;;;116.18;;
55202;SDS011;41077;52.956;6.796;2022-09-24T06:12:45;147.10;;;129.25;;
55202;SDS011;41077;52.956;6.796;2022-09-24T06:15:11;161.32;;;123.68;;
55202;SDS011;41077;52.956;6.796;2022-09-24T06:17:38;144.10;;;122.82;;
55202;SDS011;41077;52.956;6.796;2022-09-24T06:20:03;160.15;;;123.38;;
55202;SDS011;41077;52.956;6.796;2022-09-24T06:22:29;160.30;;;126.97;;
55202;SDS011;41077;52.956;6.796;2022-09-24T06:24:55;170.57;;;126.13;;
55202;SDS011;41077;52.956;6.796;2022-09-24T06:27:20;173.45;;;126.88;;
55202;SDS011;41077;52.956;6.796;2022-09-24T06:29:46;162.98;;;118.80;;
55202;SDS011;41077;52.956;6.796;2022-09-24T06:32:12;167.43;;;123.20;;
55202;SDS011;41077;52.956;6.796;2022-09-24T06:34:37;157.02;;;124.13;;
55202;SDS011;41077;52.956;6.796;2022-09-24T06:37:03;158.48;;;126.60;;
55202;SDS011;41077;52.956;6.796;2022-09-24T06:39:29;164.98;;;128.55;;
55202;SDS011;41077;52.956;6.796;2022-09-24T06:41:54;174.38;;;119.03;;
55202;SDS011;41077;52.956;6.796;2022-09-24T06:44:20;144.43;;;112.22;;
55202;SDS011;41077;52.956;6.796;2022-09-24T06:46:46;158.50;;;115.72;;
55202;SDS011;41077;52.956;6.796;2022-09-24T06:49:12;160.70;;;117.30;;
55202;SDS011;41077;52.956;6.796;2022-09-24T06:51:40;151.40;;;113.40;;
55202;SDS011;41077;52.956;6.796;2022-09-24T06:54:06;137.90;;;111.80;;
55202;SDS011;41077;52.956;6.796;2022-09-24T06:56:32;137.95;;;116.65;;
55202;SDS011;41077;52.956;6.796;2022-09-24T06:58:57;147.55;;;115.28;;
55202;SDS011;41077;52.956;6.796;2022-09-24T07:01:23;141.65;;;112.13;;
55202;SDS011;41077;52.956;6.796;2022-09-24T07:03:50;152.75;;;114.03;;
55202;SDS011;41077;52.956;6.796;2022-09-24T07:06:15;150.27;;;108.72;;
55202;SDS011;41077;52.956;6.796;2022-09-24T07:08:41;141.88;;;109.22;;
55202;SDS011;41077;52.956;6.796;2022-09-24T07:11:07;134.70;;;110.97;;
55202;SDS011;41077;52.956;6.796;2022-09-24T07:13:33;149.40;;;120.47;;
55202;SDS011;41077;52.956;6.796;2022-09-24T07:15:58;145.52;;;119.63;;
55202;SDS011;41077;52.956;6.796;2022-09-24T07:18:25;128.95;;;109.43;;
55202;SDS011;41077;52.956;6.796;2022-09-24T07:20:51;137.23;;;115.20;;
55202;SDS011;41077;52.956;6.796;2022-09-24T07:23:18;146.07;;;118.85;;
55202;SDS011;41077;52.956;6.796;2022-09-24T07:25:44;141.05;;;113.13;;
55202;SDS011;41077;52.956;6.796;2022-09-24T07:28:10;132.57;;;108.47;;
55202;SDS011;41077;52.956;6.796;2022-09-24T07:30:37;144.07;;;115.82;;
55202;SDS011;41077;52.956;6.796;2022-09-24T07:33:03;138.18;;;111.63;;
55202;SDS011;41077;52.956;6.796;2022-09-24T07:35:31;148.25;;;112.60;;
55202;SDS011;41077;52.956;6.796;2022-09-24T07:37:59;146.50;;;106.97;;
55202;SDS011;41077;52.956;6.796;2022-09-24T07:40:27;138.82;;;113.40;;
55202;SDS011;41077;52.956;6.796;2022-09-24T07:42:54;139.18;;;113.28;;
55202;SDS011;41077;52.956;6.796;2022-09-24T07:45:23;125.70;;;108.20;;
55202;SDS011;41077;52.956;6.796;2022-09-24T07:47:55;143.40;;;115.00;;
55202;SDS011;41077;52.956;6.796;2022-09-24T07:50:26;136.60;;;110.35;;
55202;SDS011;41077;52.956;6.796;2022-09-24T07:52:52;138.50;;;105.05;;
55202;SDS011;41077;52.956;6.796;2022-09-24T07:55:19;96.72;;;86.97;;
55202;SDS011;41077;52.956;6.796;2022-09-24T07:57:46;111.50;;;100.03;;
55202;SDS011;41077;52.956;6.796;2022-09-24T08:00:16;83.90;;;75.55;;
55202;SDS011;41077;52.956;6.796;2022-09-24T08:02:44;83.05;;;74.85;;
55202;SDS011;41077;52.956;6.796;2022-09-24T08:05:11;67.63;;;61.75;;
55202;SDS011;41077;52.956;6.796;2022-09-24T08:07:37;65.40;;;59.55;;
55202;SDS011;41077;52.956;6.796;2022-09-24T08:10:03;58.25;;;53.63;;
55202;SDS011;41077;52.956;6.796;2022-09-24T08:12:29;57.22;;;52.03;;
55202;SDS011;41077;52.956;6.796;2022-09-24T08:14:55;54.05;;;49.97;;
55202;SDS011;41077;52.956;6.796;2022-09-24T08:17:21;49.47;;;45.83;;
55202;SDS011;41077;52.956;6.796;2022-09-24T08:19:47;51.65;;;46.88;;
55202;SDS011;41077;52.956;6.796;2022-09-24T08:22:13;50.10;;;46.08;;
55202;SDS011;41077;52.956;6.796;2022-09-24T08:24:39;51.45;;;47.78;;
55202;SDS011;41077;52.956;6.796;2022-09-24T08:27:06;52.17;;;47.40;;
55202;SDS011;41077;52.956;6.796;2022-09-24T08:29:32;50.75;;;47.30;;
55202;SDS011;41077;52.956;6.796;2022-09-24T08:31:59;49.00;;;44.45;;
55202;SDS011;41077;52.956;6.796;2022-09-24T08:34:25;52.65;;;48.92;;
55202;SDS011;41077;52.956;6.796;2022-09-24T08:36:51;57.50;;;52.65;;
55202;SDS011;41077;52.956;6.796;2022-09-24T08:39:16;44.67;;;41.08;;
55202;SDS011;41077;52.956;6.796;2022-09-24T08:44:25;53.40;;;49.72;;
55202;SDS011;41077;52.956;6.796;2022-09-24T08:47:15;56.67;;;51.92;;
55202;SDS011;41077;52.956;6.796;2022-09-24T08:55:13;47.92;;;43.67;;
55202;SDS011;41077;52.956;6.796;2022-09-24T08:57:59;47.95;;;44.42;;
55202;SDS011;41077;52.956;6.796;2022-09-24T09:00:39;54.33;;;50.05;;
55202;SDS011;41077;52.956;6.796;2022-09-24T09:03:23;48.22;;;44.38;;
55202;SDS011;41077;52.956;6.796;2022-09-24T09:09:03;49.08;;;45.22;;
55202;SDS011;41077;52.956;6.796;2022-09-24T09:12:04;43.38;;;40.65;;
55202;SDS011;41077;52.956;6.796;2022-09-24T09:20:18;50.10;;;45.63;;
55202;SDS011;41077;52.956;6.796;2022-09-24T09:22:49;66.10;;;60.08;;
55202;SDS011;41077;52.956;6.796;2022-09-24T09:25:21;53.92;;;50.25;;
55202;SDS011;41077;52.956;6.796;2022-09-24T09:28:00;58.83;;;55.20;;
55202;SDS011;41077;52.956;6.796;2022-09-24T09:30:32;50.78;;;47.25;;
55202;SDS011;41077;52.956;6.796;2022-09-24T09:33:11;47.60;;;43.60;;
55202;SDS011;41077;52.956;6.796;2022-09-24T09:43:51;57.95;;;53.15;;
55202;SDS011;41077;52.956;6.796;2022-09-24T09:46:24;49.15;;;45.75;;
55202;SDS011;41077;52.956;6.796;2022-09-24T09:49:01;44.75;;;40.67;;
55202;SDS011;41077;52.956;6.796;2022-09-24T09:51:32;49.88;;;46.13;;
55202;SDS011;41077;52.956;6.796;2022-09-24T09:54:03;47.92;;;44.25;;
55202;SDS011;41077;52.956;6.796;2022-09-24T10:01:40;49.58;;;45.97;;
55202;SDS011;41077;52.956;6.796;2022-09-24T10:07:05;47.78;;;43.80;;
55202;SDS011;41077;52.956;6.796;2022-09-24T10:09:33;49.83;;;46.55;;
55202;SDS011;41077;52.956;6.796;2022-09-24T10:14:39;50.92;;;47.45;;
55202;SDS011;41077;52.956;6.796;2022-09-24T10:17:05;46.92;;;43.40;;
55202;SDS011;41077;52.956;6.796;2022-09-24T10:19:35;50.30;;;46.55;;
55202;SDS011;41077;52.956;6.796;2022-09-24T10:22:10;52.35;;;47.30;;
55202;SDS011;41077;52.956;6.796;2022-09-24T10:24:50;51.00;;;47.40;;
55202;SDS011;41077;52.956;6.796;2022-09-24T10:27:20;48.72;;;45.63;;
55202;SDS011;41077;52.956;6.796;2022-09-24T10:30:00;44.88;;;41.95;;
55202;SDS011;41077;52.956;6.796;2022-09-24T10:32:55;49.33;;;45.55;;
55202;SDS011;41077;52.956;6.796;2022-09-24T10:38:00;57.15;;;52.28;;
55202;SDS011;41077;52.956;6.796;2022-09-24T10:40:28;55.33;;;50.42;;
55202;SDS011;41077;52.956;6.796;2022-09-24T10:43:02;47.67;;;44.58;;
55202;SDS011;41077;52.956;6.796;2022-09-24T10:48:44;54.25;;;49.58;;
55202;SDS011;41077;52.956;6.796;2022-09-24T10:51:35;49.90;;;46.42;;
55202;SDS011;41077;52.956;6.796;2022-09-24T10:57:11;43.17;;;39.75;;
55202;SDS011;41077;52.956;6.796;2022-09-24T10:59:56;44.03;;;41.08;;
55202;SDS011;41077;52.956;6.796;2022-09-24T11:32:07;45.20;;;41.70;;
55202;SDS011;41077;52.956;6.796;2022-09-24T11:56:40;47.55;;;44.40;;
55202;SDS011;41077;52.956;6.796;2022-09-24T11:59:45;47.35;;;43.20;;
55202;SDS011;41077;52.956;6.796;2022-09-24T12:07:30;44.47;;;40.88;;
55202;SDS011;41077;52.956;6.796;2022-09-24T12:13:03;49.95;;;45.85;;
55202;SDS011;41077;52.956;6.796;2022-09-24T12:15:42;47.92;;;44.58;;
55202;SDS011;41077;52.956;6.796;2022-09-24T12:19:00;47.78;;;44.63;;
55202;SDS011;41077;52.956;6.796;2022-09-24T12:21:24;47.47;;;44.28;;
55202;SDS011;41077;52.956;6.796;2022-09-24T12:23:56;51.03;;;46.20;;
55202;SDS011;41077;52.956;6.796;2022-09-24T12:26:26;51.05;;;47.80;;
55202;SDS011;41077;52.956;6.796;2022-09-24T12:31:47;54.22;;;49.22;;
55202;SDS011;41077;52.956;6.796;2022-09-24T12:37:35;48.92;;;45.70;;
55202;SDS011;41077;52.956;6.796;2022-09-24T12:42:38;53.00;;;48.60;;
55202;SDS011;41077;52.956;6.796;2022-09-24T12:45:11;50.67;;;46.60;;
55202;SDS011;41077;52.956;6.796;2022-09-24T12:47:51;43.70;;;40.63;;
55202;SDS011;41077;52.956;6.796;2022-09-24T12:50:23;45.92;;;42.38;;
55202;SDS011;41077;52.956;6.796;2022-09-24T12:52:55;44.03;;;40.97;;
55202;SDS011;41077;52.956;6.796;2022-09-24T12:55:30;49.28;;;46.05;;
55202;SDS011;41077;52.956;6.796;2022-09-24T12:58:05;49.40;;;46.40;;
55202;SDS011;41077;52.956;6.796;2022-09-24T13:00:49;45.90;;;42.38;;
55202;SDS011;41077;52.956;6.796;2022-09-24T13:05:58;45.35;;;42.05;;
55202;SDS011;41077;52.956;6.796;2022-09-24T13:08:25;43.08;;;40.38;;
55202;SDS011;41077;52.956;6.796;2022-09-24T13:11:04;49.22;;;45.80;;
55202;SDS011;41077;52.956;6.796;2022-09-24T13:13:56;43.70;;;40.58;;
55202;SDS011;41077;52.956;6.796;2022-09-24T13:16:35;46.30;;;42.90;;
55202;SDS011;41077;52.956;6.796;2022-09-24T13:19:02;46.15;;;42.88;;
55202;SDS011;41077;52.956;6.796;2022-09-24T13:21:30;47.25;;;43.95;;
55202;SDS011;41077;52.956;6.796;2022-09-24T13:23:56;45.70;;;42.38;;
55202;SDS011;41077;52.956;6.796;2022-09-24T13:26:26;45.20;;;41.60;;
55202;SDS011;41077;52.956;6.796;2022-09-24T13:29:04;47.13;;;43.88;;
55202;SDS011;41077;52.956;6.796;2022-09-24T13:31:46;46.75;;;43.25;;
55202;SDS011;41077;52.956;6.796;2022-09-24T13:36:46;50.05;;;46.65;;
55202;SDS011;41077;52.956;6.796;2022-09-24T13:45:14;53.20;;;49.95;;
55202;SDS011;41077;52.956;6.796;2022-09-24T13:47:50;45.30;;;42.35;;
55202;SDS011;41077;52.956;6.796;2022-09-24T13:55:43;48.70;;;45.35;;
55202;SDS011;41077;52.956;6.796;2022-09-24T14:01:01;53.10;;;49.22;;
55202;SDS011;41077;52.956;6.796;2022-09-24T14:03:39;50.42;;;47.17;;
55202;SDS011;41077;52.956;6.796;2022-09-24T14:06:10;43.83;;;41.33;;
55202;SDS011;41077;52.956;6.796;2022-09-24T14:08:42;47.65;;;44.72;;
55202;SDS011;41077;52.956;6.796;2022-09-24T14:11:14;48.38;;;44.83;;
55202;SDS011;41077;52.956;6.796;2022-09-24T14:13:43;50.33;;;46.92;;
55202;SDS011;41077;52.956;6.796;2022-09-24T14:16:18;49.45;;;46.17;;
55202;SDS011;41077;52.956;6.796;2022-09-24T14:18:48;49.08;;;45.70;;
55202;SDS011;41077;52.956;6.796;2022-09-24T14:21:34;47.72;;;44.78;;
55202;SDS011;41077;52.956;6.796;2022-09-24T14:24:13;49.22;;;46.35;;
55202;SDS011;41077;52.956;6.796;2022-09-24T14:27:09;56.73;;;53.10;;
55202;SDS011;41077;52.956;6.796;2022-09-24T14:35:16;65.15;;;61.22;;
55202;SDS011;41077;52.956;6.796;2022-09-24T14:37:46;54.47;;;50.90;;
55202;SDS011;41077;52.956;6.796;2022-09-24T14:40:15;47.83;;;44.45;;
55202;SDS011;41077;52.956;6.796;2022-09-24T14:42:46;46.72;;;43.38;;
55202;SDS011;41077;52.956;6.796;2022-09-24T14:45:20;47.22;;;44.00;;
55202;SDS011;41077;52.956;6.796;2022-09-24T14:48:02;47.03;;;44.25;;
55202;SDS011;41077;52.956;6.796;2022-09-24T14:52:56;56.63;;;49.92;;
55202;SDS011;41077;52.956;6.796;2022-09-24T14:55:33;44.08;;;40.88;;
55202;SDS011;41077;52.956;6.796;2022-09-24T14:58:03;44.55;;;41.67;;
55202;SDS011;41077;52.956;6.796;2022-09-24T15:00:33;46.30;;;43.15;;
55202;SDS011;41077;52.956;6.796;2022-09-24T15:03:02;44.97;;;41.72;;
55202;SDS011;41077;52.956;6.796;2022-09-24T15:05:31;49.05;;;45.45;;
55202;SDS011;41077;52.956;6.796;2022-09-24T15:10:39;43.83;;;40.75;;
55202;SDS011;41077;52.956;6.796;2022-09-24T15:13:11;47.85;;;44.10;;
55202;SDS011;41077;52.956;6.796;2022-09-24T15:15:38;48.67;;;45.28;;
55202;SDS011;41077;52.956;6.796;2022-09-24T15:18:07;51.45;;;47.70;;
55202;SDS011;41077;52.956;6.796;2022-09-24T15:20:37;47.70;;;44.42;;
55202;SDS011;41077;52.956;6.796;2022-09-24T15:23:02;45.15;;;41.88;;
55202;SDS011;41077;52.956;6.796;2022-09-24T15:25:28;43.50;;;40.40;;
55202;SDS011;41077;52.956;6.796;2022-09-24T15:27:54;39.85;;;37.15;;
55202;SDS011;41077;52.956;6.796;2022-09-24T15:30:19;44.55;;;41.50;;
55202;SDS011;41077;52.956;6.796;2022-09-24T15:32:48;42.60;;;39.13;;
55202;SDS011;41077;52.956;6.796;2022-09-24T15:35:15;42.05;;;39.17;;
55202;SDS011;41077;52.956;6.796;2022-09-24T15:37:41;44.38;;;40.70;;
55202;SDS011;41077;52.956;6.796;2022-09-24T15:40:10;41.58;;;38.47;;
55202;SDS011;41077;52.956;6.796;2022-09-24T15:42:39;43.30;;;39.75;;
55202;SDS011;41077;52.956;6.796;2022-09-24T15:45:14;42.70;;;39.83;;
55202;SDS011;41077;52.956;6.796;2022-09-24T15:47:45;44.47;;;41.17;;
55202;SDS011;41077;52.956;6.796;2022-09-24T15:50:12;42.17;;;39.05;;
55202;SDS011;41077;52.956;6.796;2022-09-24T15:52:57;45.95;;;42.75;;
55202;SDS011;41077;52.956;6.796;2022-09-24T15:55:25;48.00;;;44.85;;
55202;SDS011;41077;52.956;6.796;2022-09-24T15:57:51;51.58;;;47.97;;
55202;SDS011;41077;52.956;6.796;2022-09-24T16:00:19;46.78;;;43.25;;
55202;SDS011;41077;52.956;6.796;2022-09-24T16:02:48;47.45;;;43.50;;
55202;SDS011;41077;52.956;6.796;2022-09-24T16:05:16;47.83;;;44.78;;
55202;SDS011;41077;52.956;6.796;2022-09-24T16:07:43;49.17;;;45.97;;
55202;SDS011;41077;52.956;6.796;2022-09-24T16:10:12;47.15;;;43.97;;
55202;SDS011;41077;52.956;6.796;2022-09-24T16:12:39;59.78;;;55.30;;
55202;SDS011;41077;52.956;6.796;2022-09-24T16:15:06;43.50;;;40.60;;
55202;SDS011;41077;52.956;6.796;2022-09-24T16:17:32;45.72;;;42.67;;
55202;SDS011;41077;52.956;6.796;2022-09-24T16:19:58;48.45;;;44.33;;
55202;SDS011;41077;52.956;6.796;2022-09-24T16:22:24;52.67;;;48.67;;
55202;SDS011;41077;52.956;6.796;2022-09-24T16:24:50;53.65;;;50.05;;
55202;SDS011;41077;52.956;6.796;2022-09-24T16:27:15;40.25;;;37.60;;
55202;SDS011;41077;52.956;6.796;2022-09-24T16:29:41;43.95;;;40.85;;
55202;SDS011;41077;52.956;6.796;2022-09-24T16:32:07;47.83;;;44.78;;
55202;SDS011;41077;52.956;6.796;2022-09-24T16:34:32;43.58;;;40.85;;
55202;SDS011;41077;52.956;6.796;2022-09-24T16:36:58;47.50;;;43.70;;
55202;SDS011;41077;52.956;6.796;2022-09-24T16:39:24;49.95;;;46.78;;
55202;SDS011;41077;52.956;6.796;2022-09-24T16:41:50;47.78;;;44.78;;
55202;SDS011;41077;52.956;6.796;2022-09-24T16:44:17;46.75;;;43.17;;
55202;SDS011;41077;52.956;6.796;2022-09-24T16:46:43;45.63;;;42.65;;
55202;SDS011;41077;52.956;6.796;2022-09-24T16:49:09;47.53;;;44.58;;
55202;SDS011;41077;52.956;6.796;2022-09-24T16:51:35;73.47;;;68.82;;
55202;SDS011;41077;52.956;6.796;2022-09-24T16:54:02;52.85;;;49.13;;
55202;SDS011;41077;52.956;6.796;2022-09-24T16:56:30;54.20;;;50.47;;
55202;SDS011;41077;52.956;6.796;2022-09-24T16:58:56;48.80;;;45.92;;
55202;SDS011;41077;52.956;6.796;2022-09-24T17:01:22;51.20;;;47.63;;
55202;SDS011;41077;52.956;6.796;2022-09-24T17:03:51;46.70;;;43.92;;
55202;SDS011;41077;52.956;6.796;2022-09-24T17:06:22;50.15;;;46.60;;
55202;SDS011;41077;52.956;6.796;2022-09-24T17:08:49;60.72;;;56.45;;